Plum, Pennsylvania
Current Conditions -  °F | °C
As of 11:53 PM on Monday 22 Dec 2014 (Local Time) from KAGC Reporting Station
Overcast Overcast  
Wind Chill: 33°   Ceiling: 11000
Heat Index: 39°   Visibility: 10mi
Dew Point: 31°   Wind: 8mph
Humidity: 73%   Direction: 120°ESE
Pressure: 29.93"   Gusts: NA
Location:  40.5°N, 79.76°W
Report Text: KAGC 230453Z AUTO 12007KT 10SM SCT080 OVC110 04/M01 A2993 RMK AO2 SLP149 T00391006 400831039 TSNO
Loading
Personal Weather Stations






























Interactive Weather Map New forecast layout! Learn more

10-Day Weather Forecast

Advertisements
Track Severe Weather on mobile